Time;durP1;ratioP1;P1;durP2;ratioP2;P2;SDS_P1;SDS_P2;PMS_P1;PMS_P2;Temp;Humidity;BMP_temperature;BMP_pressure;BME280_temperature;BME280_humidity;BME280_pressure;Samples;Min_cycle;Max_cycle;Signal;HPM_P1;HPM_P2
2023/08/10 00:00:16;;;;;;;2.67;0.90;;;19.50;99.90;;;;;;5071359;28;20453;-42
2023/08/10 00:02:42;;;;;;;0.90;0.80;;;19.50;99.90;;;;;;5072259;28;20020;-42
2023/08/10 00:05:09;;;;;;;1.75;1.08;;;19.50;99.90;;;;;;5072554;28;20115;-41
2023/08/10 00:07:35;;;;;;;1.73;1.02;;;19.50;99.90;;;;;;5072295;28;20051;-40
2023/08/10 00:10:02;;;;;;;1.23;0.80;;;19.50;99.90;;;;;;5071953;28;20044;-45
2023/08/10 00:12:28;;;;;;;2.05;0.82;;;19.50;99.90;;;;;;5072143;28;20035;-41
2023/08/10 00:14:53;;;;;;;1.70;0.82;;;19.50;99.90;;;;;;5072050;28;20028;-45
2023/08/10 00:17:19;;;;;;;1.13;0.90;;;19.50;99.90;;;;;;5072014;28;20477;-37
2023/08/10 00:19:44;;;;;;;0.95;0.80;;;19.50;99.90;;;;;;5071897;28;20037;-41
2023/08/10 00:22:11;;;;;;;1.15;0.75;;;19.50;99.90;;;;;;5071966;28;20028;-42
2023/08/10 00:24:37;;;;;;;1.27;0.90;;;19.50;99.90;;;;;;5071792;28;20032;-43
2023/08/10 00:27:03;;;;;;;1.23;0.75;;;19.50;99.90;;;;;;5070589;28;20031;-40
2023/08/10 00:29:29;;;;;;;0.95;0.70;;;19.50;99.90;;;;;;5070345;28;20108;-43
2023/08/10 00:31:55;;;;;;;1.40;0.90;;;19.50;99.90;;;;;;5071813;28;20024;-43
2023/08/10 00:34:21;;;;;;;1.42;0.80;;;19.50;99.90;;;;;;5071878;28;20524;-41
2023/08/10 00:36:46;;;;;;;0.88;0.80;;;19.50;99.90;;;;;;5071646;28;20051;-42
2023/08/10 00:39:12;;;;;;;0.70;0.70;;;19.50;99.90;;;;;;5071419;28;20024;-38
2023/08/10 00:41:38;;;;;;;1.90;0.80;;;19.50;99.90;;;;;;5071661;28;20017;-39
2023/08/10 00:44:04;;;;;;;1.63;0.80;;;19.50;99.90;;;;;;5071706;28;20035;-41
2023/08/10 00:46:32;;;;;;;1.55;0.70;;;19.50;99.90;;;;;;5071571;28;20115;-46
2023/08/10 00:48:58;;;;;;;1.15;0.88;;;19.40;99.90;;;;;;5070047;28;20036;-48
2023/08/10 00:51:24;;;;;;;1.75;1.00;;;19.40;99.90;;;;;;5070135;28;20020;-40
2023/08/10 00:53:49;;;;;;;0.85;0.70;;;19.50;99.90;;;;;;5070040;28;20359;-42
2023/08/10 00:56:16;;;;;;;1.60;0.90;;;19.40;99.90;;;;;;5070085;28;20032;-43
2023/08/10 00:58:42;;;;;;;1.00;0.90;;;19.40;99.90;;;;;;5071776;28;20491;-40
2023/08/10 01:01:08;;;;;;;1.77;0.93;;;19.40;99.90;;;;;;5071255;28;20531;-40
2023/08/10 01:03:34;;;;;;;1.73;1.13;;;19.50;99.90;;;;;;5071278;28;20024;-42
2023/08/10 01:06:15;;;;;;;1.17;0.90;;;19.40;99.90;;;;;;5071328;28;20026;-39
2023/08/10 01:09:11;;;;;;;1.42;0.93;;;19.40;99.90;;;;;;5071383;28;20489;-43
2023/08/10 01:11:50;;;;;;;1.45;1.00;;;19.40;99.90;;;;;;5071157;28;20057;-39
2023/08/10 01:14:28;;;;;;;1.48;0.90;;;19.40;99.90;;;;;;5071528;28;20439;-43
2023/08/10 01:16:56;;;;;;;1.33;0.95;;;19.40;99.90;;;;;;5071072;28;20474;-42
2023/08/10 01:19:38;;;;;;;1.33;1.00;;;19.50;99.90;;;;;;5070982;28;20028;-40
2023/08/10 01:22:25;;;;;;;2.00;1.00;;;19.40;99.90;;;;;;5071308;28;20502;-42
2023/08/10 01:25:01;;;;;;;0.90;0.80;;;19.40;99.90;;;;;;5071141;28;20028;-40
2023/08/10 01:27:31;;;;;;;0.75;0.70;;;19.40;99.90;;;;;;5071358;28;20074;-41
2023/08/10 01:29:58;;;;;;;1.58;0.90;;;19.40;99.90;;;;;;5070961;28;20025;-38
2023/08/10 01:32:27;;;;;;;1.42;0.82;;;19.40;99.90;;;;;;5071197;28;20028;-39
2023/08/10 01:34:52;;;;;;;1.10;0.90;;;19.40;99.90;;;;;;5070999;28;20024;-44
2023/08/10 01:37:18;;;;;;;1.35;0.80;;;19.40;99.90;;;;;;5071013;28;20036;-44
2023/08/10 01:39:44;;;;;;;1.80;0.90;;;19.40;99.90;;;;;;5071191;28;20410;-42
2023/08/10 01:42:10;;;;;;;1.00;0.75;;;19.40;99.90;;;;;;5070995;28;20363;-45
2023/08/10 01:44:35;;;;;;;1.30;0.95;;;19.40;99.90;;;;;;5070875;28;20017;-41
2023/08/10 01:47:05;;;;;;;1.95;1.08;;;19.40;99.90;;;;;;5070953;28;20033;-41
2023/08/10 01:49:34;;;;;;;1.00;0.70;;;19.40;99.90;;;;;;5070640;28;20028;-42
2023/08/10 01:52:07;;;;;;;1.27;0.88;;;19.40;99.90;;;;;;5070905;28;20056;-44
2023/08/10 01:54:36;;;;;;;1.13;0.90;;;19.40;99.90;;;;;;5070735;28;20031;-38
2023/08/10 01:57:02;;;;;;;1.00;0.90;;;19.40;99.90;;;;;;5070780;28;20146;-40
2023/08/10 01:59:28;;;;;;;1.83;0.80;;;19.40;99.90;;;;;;5070656;28;20020;-41
2023/08/10 02:01:55;;;;;;;1.23;0.90;;;19.40;99.90;;;;;;5069797;28;20025;-41
2023/08/10 02:04:20;;;;;;;0.88;0.77;;;19.30;99.90;;;;;;5070750;28;20033;-41
2023/08/10 02:06:46;;;;;;;1.42;0.90;;;19.40;99.90;;;;;;5070659;28;20482;-42
2023/08/10 02:09:12;;;;;;;1.50;0.85;;;19.30;99.90;;;;;;5070535;28;20024;-45
2023/08/10 02:11:37;;;;;;;1.17;0.80;;;19.30;99.90;;;;;;5070716;28;20120;-43
2023/08/10 02:14:03;;;;;;;1.30;0.88;;;19.30;99.90;;;;;;5070617;28;20024;-43
2023/08/10 02:16:29;;;;;;;2.60;1.00;;;19.30;99.90;;;;;;5070524;28;20031;-41
2023/08/10 02:18:55;;;;;;;1.10;0.90;;;19.30;99.90;;;;;;5070479;28;20103;-43
2023/08/10 02:21:23;;;;;;;1.08;0.70;;;19.40;99.90;;;;;;5070589;28;20150;-38
2023/08/10 02:23:50;;;;;;;1.73;0.98;;;19.30;99.90;;;;;;5071960;28;20480;-41
2023/08/10 02:26:16;;;;;;;1.33;1.00;;;19.30;99.90;;;;;;5074467;28;20036;-38
2023/08/10 02:28:42;;;;;;;1.20;1.08;;;19.30;99.90;;;;;;5074293;28;20093;-42
2023/08/10 02:31:07;;;;;;;1.20;0.90;;;19.30;99.90;;;;;;5074015;28;20436;-42
2023/08/10 02:33:33;;;;;;;1.20;0.98;;;19.30;99.90;;;;;;5074271;28;20056;-41
2023/08/10 02:35:59;;;;;;;1.80;1.00;;;19.30;99.90;;;;;;5073953;28;20060;-38
2023/08/10 02:38:24;;;;;;;1.15;0.80;;;19.30;99.90;;;;;;5074071;28;20017;-42
2023/08/10 02:40:50;;;;;;;2.47;1.10;;;19.30;99.90;;;;;;5073750;28;20474;-43
2023/08/10 02:43:16;;;;;;;1.58;0.90;;;19.30;99.90;;;;;;5073817;28;20142;-43
2023/08/10 02:45:41;;;;;;;2.17;1.00;;;19.30;99.90;;;;;;5073885;28;20028;-41
2023/08/10 02:48:07;;;;;;;1.20;0.90;;;19.30;99.90;;;;;;5073770;28;20060;-39
2023/08/10 02:50:32;;;;;;;1.77;0.98;;;19.30;99.90;;;;;;5073426;28;20027;-39
2023/08/10 02:52:58;;;;;;;1.25;0.85;;;19.30;99.90;;;;;;5073864;28;20024;-42
2023/08/10 02:55:24;;;;;;;3.17;0.90;;;19.30;99.90;;;;;;5073648;28;20112;-42
2023/08/10 02:57:50;;;;;;;1.95;1.02;;;19.30;99.90;;;;;;5073533;28;20028;-40
2023/08/10 03:00:17;;;;;;;1.15;0.82;;;19.30;99.90;;;;;;5073413;28;20020;-40
2023/08/10 03:02:43;;;;;;;1.38;0.82;;;19.30;99.90;;;;;;5073466;28;20025;-42
2023/08/10 03:05:09;;;;;;;1.75;0.80;;;19.30;99.90;;;;;;5073431;28;20031;-41
2023/08/10 03:07:36;;;;;;;3.25;1.00;;;19.30;99.90;;;;;;5073470;28;20516;-42
2023/08/10 03:10:02;;;;;;;1.92;1.15;;;19.20;99.90;;;;;;5073197;28;20020;-42
2023/08/10 03:12:27;;;;;;;0.95;0.70;;;19.20;99.90;;;;;;5073356;28;20428;-41
2023/08/10 03:14:53;;;;;;;0.98;0.80;;;19.20;99.90;;;;;;5073320;28;20082;-42
2023/08/10 03:17:19;;;;;;;1.38;0.88;;;19.20;99.90;;;;;;5073080;28;20040;-41
2023/08/10 03:19:44;;;;;;;1.25;0.82;;;19.20;99.90;;;;;;5072908;28;20595;-41
2023/08/10 03:22:10;;;;;;;1.33;1.00;;;19.20;99.90;;;;;;5073164;28;20107;-41
2023/08/10 03:24:38;;;;;;;1.35;0.95;;;19.20;99.90;;;;;;5073056;28;20021;-41
2023/08/10 03:27:04;;;;;;;1.98;0.98;;;19.20;99.90;;;;;;5073087;28;20161;-42
2023/08/10 03:29:30;;;;;;;1.05;0.90;;;19.20;99.90;;;;;;5073171;28;20103;-42
2023/08/10 03:31:55;;;;;;;1.35;0.85;;;19.20;99.90;;;;;;5073004;28;20028;-42
2023/08/10 03:34:21;;;;;;;1.33;0.82;;;19.20;99.90;;;;;;5072803;28;20398;-41
2023/08/10 03:36:47;;;;;;;1.25;0.90;;;19.20;99.90;;;;;;5072803;28;20035;-41
2023/08/10 03:39:12;;;;;;;2.13;1.00;;;19.20;99.90;;;;;;5072637;28;20032;-43
2023/08/10 03:41:38;;;;;;;3.13;0.80;;;19.20;99.90;;;;;;5072839;28;20024;-42
2023/08/10 03:44:04;;;;;;;1.33;0.80;;;19.20;99.90;;;;;;5072714;28;20470;-43
2023/08/10 03:46:30;;;;;;;3.30;1.00;;;19.20;99.90;;;;;;5072712;28;20501;-44
2023/08/10 03:48:55;;;;;;;1.77;1.02;;;19.20;99.90;;;;;;5072453;28;20035;-42
2023/08/10 03:51:21;;;;;;;1.27;0.85;;;19.20;99.90;;;;;;5072598;28;20025;-40
2023/08/10 03:53:47;;;;;;;4.15;0.95;;;19.20;99.90;;;;;;5072525;28;20046;-43
2023/08/10 03:56:12;;;;;;;3.03;0.93;;;19.20;99.90;;;;;;5072455;28;20035;-41
2023/08/10 03:58:38;;;;;;;27.38;3.58;;;19.20;99.90;;;;;;5072441;28;20393;-45
2023/08/10 04:01:06;;;;;;;1.02;0.90;;;19.20;99.90;;;;;;5072174;28;20417;-43
2023/08/10 04:03:33;;;;;;;1.88;0.90;;;19.20;99.90;;;;;;5072208;28;20024;-42
2023/08/10 04:05:59;;;;;;;1.70;1.00;;;19.20;99.90;;;;;;5072440;28;20024;-45
2023/08/10 04:08:25;;;;;;;1.77;0.80;;;19.20;99.90;;;;;;5072207;28;20029;-38
2023/08/10 04:10:51;;;;;;;3.63;1.13;;;19.20;99.90;;;;;;5071951;28;20028;-40
2023/08/10 04:13:16;;;;;;;1.80;1.00;;;19.20;99.90;;;;;;5072074;28;20059;-39
2023/08/10 04:15:42;;;;;;;1.60;0.80;;;19.20;99.90;;;;;;5071881;28;20075;-41
2023/08/10 04:18:07;;;;;;;2.13;1.10;;;19.10;99.90;;;;;;5072483;28;20052;-46
2023/08/10 04:20:33;;;;;;;0.98;0.88;;;19.10;99.90;;;;;;5071910;28;20664;-42
2023/08/10 04:22:59;;;;;;;3.10;1.00;;;19.10;99.90;;;;;;5071823;28;20458;-38
2023/08/10 04:25:26;;;;;;;1.50;1.00;;;19.10;99.90;;;;;;5072037;28;20038;-39
2023/08/10 04:27:52;;;;;;;3.13;0.82;;;19.20;99.90;;;;;;5071932;28;20024;-43
2023/08/10 04:30:17;;;;;;;1.90;1.08;;;19.10;99.90;;;;;;5070250;28;20420;-42
2023/08/10 04:32:43;;;;;;;1.45;1.13;;;19.10;99.90;;;;;;5071620;28;20054;-39
2023/08/10 04:35:09;;;;;;;4.38;1.20;;;19.10;99.90;;;;;;5071767;28;20028;-42
2023/08/10 04:37:35;;;;;;;1.30;0.80;;;19.10;99.90;;;;;;5071700;28;20405;-43
2023/08/10 04:40:04;;;;;;;1.63;0.90;;;19.10;99.90;;;;;;5071482;28;20096;-41
2023/08/10 04:42:31;;;;;;;1.73;0.98;;;19.10;99.90;;;;;;5071696;28;20486;-42
2023/08/10 04:44:57;;;;;;;1.67;1.00;;;19.10;99.90;;;;;;5071390;28;20159;-45
2023/08/10 04:47:22;;;;;;;1.15;0.80;;;19.10;99.90;;;;;;5071187;28;20131;-42
2023/08/10 04:49:48;;;;;;;1.55;0.95;;;19.10;99.90;;;;;;5071340;28;20016;-42
2023/08/10 04:52:14;;;;;;;3.15;1.00;;;19.10;99.90;;;;;;5071712;28;20101;-38
2023/08/10 04:54:42;;;;;;;1.65;0.90;;;19.10;99.90;;;;;;5071444;28;20095;-41
2023/08/10 04:57:07;;;;;;;1.65;1.10;;;19.10;99.90;;;;;;5071538;28;20028;-43
2023/08/10 04:59:33;;;;;;;1.23;0.90;;;19.10;99.90;;;;;;5071297;28;20020;-48
2023/08/10 05:01:58;;;;;;;1.27;1.00;;;19.10;99.90;;;;;;5071416;28;20024;-42
2023/08/10 05:04:24;;;;;;;1.40;0.80;;;19.10;99.90;;;;;;5071324;28;20025;-43
2023/08/10 05:06:50;;;;;;;2.78;0.90;;;19.10;99.90;;;;;;5071378;28;20024;-41
2023/08/10 05:09:17;;;;;;;1.23;0.90;;;19.10;99.90;;;;;;5071081;28;20428;-43
2023/08/10 05:11:42;;;;;;;1.65;0.98;;;19.10;99.90;;;;;;5071270;28;20025;-42
2023/08/10 05:14:08;;;;;;;1.48;0.90;;;19.10;99.90;;;;;;5071167;28;20078;-41
2023/08/10 05:16:34;;;;;;;4.88;1.45;;;19.10;99.90;;;;;;5071021;28;20039;-38
2023/08/10 05:18:59;;;;;;;2.47;0.98;;;19.10;99.90;;;;;;5071065;28;20017;-40
2023/08/10 05:21:25;;;;;;;1.40;1.00;;;19.10;99.90;;;;;;5071181;28;20466;-42
2023/08/10 05:23:51;;;;;;;1.17;0.93;;;19.10;99.90;;;;;;5071097;28;20033;-43
2023/08/10 05:26:16;;;;;;;1.15;0.93;;;19.10;99.90;;;;;;5071215;28;20025;-43
2023/08/10 05:28:42;;;;;;;1.38;1.00;;;19.10;99.90;;;;;;5071044;28;20029;-41
2023/08/10 05:31:08;;;;;;;2.13;1.17;;;19.10;99.90;;;;;;5070920;28;20226;-43
2023/08/10 05:33:34;;;;;;;1.15;0.95;;;19.10;99.90;;;;;;5071012;28;20107;-41
2023/08/10 05:35:59;;;;;;;2.97;1.10;;;19.10;99.90;;;;;;5070967;28;20143;-41
2023/08/10 05:38:25;;;;;;;1.55;0.95;;;19.10;99.90;;;;;;5071145;28;20080;-41
2023/08/10 05:40:51;;;;;;;3.88;1.10;;;19.10;99.90;;;;;;5070814;28;20389;-41
2023/08/10 05:43:17;;;;;;;1.33;0.90;;;19.10;99.90;;;;;;5070931;28;20112;-42
2023/08/10 05:45:42;;;;;;;1.63;1.17;;;19.10;99.90;;;;;;5070909;28;20377;-46
2023/08/10 05:48:12;;;;;;;3.90;1.10;;;19.10;99.90;;;;;;5071276;28;20020;-43
2023/08/10 05:50:38;;;;;;;1.40;0.85;;;19.10;99.90;;;;;;5070720;28;20032;-44
2023/08/10 05:53:05;;;;;;;2.25;0.90;;;19.10;99.90;;;;;;5070872;28;20481;-44
2023/08/10 05:55:31;;;;;;;2.47;0.90;;;19.10;99.90;;;;;;5070885;28;20440;-38
2023/08/10 05:57:57;;;;;;;1.70;1.00;;;19.10;99.90;;;;;;5071253;28;20040;-42
2023/08/10 06:00:22;;;;;;;2.05;0.80;;;19.10;99.90;;;;;;5074726;28;20059;-39
2023/08/10 06:02:49;;;;;;;3.30;1.10;;;19.10;99.90;;;;;;5074588;28;20021;-41
2023/08/10 06:05:14;;;;;;;1.17;0.88;;;19.10;99.90;;;;;;5074713;28;20460;-41
2023/08/10 06:07:41;;;;;;;1.50;1.13;;;19.10;99.90;;;;;;5074697;28;20052;-38
2023/08/10 06:10:07;;;;;;;1.70;1.10;;;19.10;99.90;;;;;;5074380;28;20104;-39
2023/08/10 06:12:33;;;;;;;1.30;1.00;;;19.10;99.90;;;;;;5074387;28;20036;-42
2023/08/10 06:14:59;;;;;;;1.35;0.90;;;19.10;99.90;;;;;;5074323;28;20458;-41
2023/08/10 06:17:26;;;;;;;1.00;0.90;;;19.10;99.90;;;;;;5074348;28;20043;-43
2023/08/10 06:19:52;;;;;;;1.45;1.05;;;19.10;99.90;;;;;;5074262;28;20016;-41
2023/08/10 06:22:19;;;;;;;1.50;0.82;;;19.10;99.90;;;;;;5074320;28;20039;-38
2023/08/10 06:24:45;;;;;;;1.35;0.95;;;19.20;99.90;;;;;;5074210;28;20017;-43
2023/08/10 06:27:11;;;;;;;1.52;1.13;;;19.20;99.90;;;;;;5074554;28;20039;-42
2023/08/10 06:29:37;;;;;;;2.20;1.08;;;19.10;99.90;;;;;;5073975;28;20029;-37
2023/08/10 06:32:09;;;;;;;1.05;0.95;;;19.10;99.90;;;;;;5074162;28;20104;-38
2023/08/10 06:34:35;;;;;;;1.17;1.00;;;19.20;99.90;;;;;;5074051;28;20660;-37
2023/08/10 06:37:01;;;;;;;0.95;0.80;;;19.20;99.90;;;;;;5072836;28;20093;-44
2023/08/10 06:39:27;;;;;;;0.95;0.77;;;19.20;99.90;;;;;;5073817;28;20032;-46
2023/08/10 06:41:53;;;;;;;1.30;0.90;;;19.20;99.90;;;;;;5073725;28;20020;-38
2023/08/10 06:44:20;;;;;;;1.05;0.70;;;19.10;99.90;;;;;;5073837;28;20016;-41
2023/08/10 06:46:45;;;;;;;1.08;0.70;;;19.20;99.90;;;;;;5072594;28;20029;-42
2023/08/10 06:49:11;;;;;;;0.95;0.75;;;19.20;99.90;;;;;;5073711;28;20025;-42
2023/08/10 06:51:37;;;;;;;0.95;0.77;;;19.20;99.90;;;;;;5073859;28;20449;-44
2023/08/10 06:54:02;;;;;;;0.80;0.65;;;19.20;99.90;;;;;;5073634;28;20135;-41
2023/08/10 06:56:29;;;;;;;1.23;0.80;;;19.20;99.90;;;;;;5073453;28;20033;-43
2023/08/10 06:58:55;;;;;;;0.80;0.70;;;19.20;99.90;;;;;;5073646;28;20032;-42
2023/08/10 07:01:20;;;;;;;1.40;0.98;;;19.20;99.90;;;;;;5073543;28;20474;-42
2023/08/10 07:03:46;;;;;;;1.10;0.80;;;19.20;99.90;;;;;;5073464;28;20509;-40
2023/08/10 07:06:12;;;;;;;0.98;0.70;;;19.20;99.90;;;;;;5073663;28;20067;-42
2023/08/10 07:08:39;;;;;;;1.27;0.80;;;19.20;99.90;;;;;;5073525;28;20086;-42
2023/08/10 07:11:05;;;;;;;1.00;0.65;;;19.20;99.90;;;;;;5072771;28;20023;-41
2023/08/10 07:13:31;;;;;;;1.13;0.70;;;19.20;99.90;;;;;;5073269;28;20040;-41
2023/08/10 07:15:57;;;;;;;0.95;0.75;;;19.20;99.90;;;;;;5073341;28;20405;-38
2023/08/10 07:18:22;;;;;;;0.82;0.70;;;19.20;99.90;;;;;;5073303;28;20023;-39
2023/08/10 07:20:48;;;;;;;1.67;0.85;;;19.20;99.90;;;;;;5073322;28;20090;-38
2023/08/10 07:23:17;;;;;;;1.27;1.10;;;19.20;99.90;;;;;;5073165;28;20062;-41
2023/08/10 07:25:46;;;;;;;1.02;0.93;;;19.20;99.90;;;;;;5073551;28;20070;-39
2023/08/10 07:28:11;;;;;;;0.90;0.70;;;19.20;99.90;;;;;;5073779;28;20025;-39
2023/08/10 07:30:37;;;;;;;0.90;0.73;;;19.20;99.90;;;;;;5072895;28;20035;-38
2023/08/10 07:33:03;;;;;;;2.28;0.90;;;19.20;99.90;;;;;;5072956;28;20024;-41
2023/08/10 07:35:29;;;;;;;0.80;0.80;;;19.20;99.90;;;;;;5073058;28;20024;-41
2023/08/10 07:37:55;;;;;;;0.98;0.80;;;19.20;99.90;;;;;;5072841;28;20028;-41
2023/08/10 07:40:21;;;;;;;0.90;0.65;;;19.20;99.90;;;;;;5073022;28;20043;-41
2023/08/10 07:42:46;;;;;;;1.23;0.70;;;19.30;99.90;;;;;;5072755;28;20473;-43
2023/08/10 07:45:12;;;;;;;1.25;0.90;;;19.20;99.90;;;;;;5072774;28;20489;-38
2023/08/10 07:47:38;;;;;;;1.10;0.73;;;19.20;99.90;;;;;;5072738;28;20110;-38
2023/08/10 07:50:05;;;;;;;0.98;0.70;;;19.30;99.90;;;;;;5072462;28;20016;-41
2023/08/10 07:52:31;;;;;;;1.23;0.80;;;19.20;99.90;;;;;;5072583;28;20074;-42
2023/08/10 07:54:56;;;;;;;1.13;0.90;;;19.30;99.90;;;;;;5072394;28;20021;-42
2023/08/10 07:57:22;;;;;;;1.17;0.85;;;19.30;99.90;;;;;;5072594;28;20047;-45
2023/08/10 07:59:47;;;;;;;1.23;0.90;;;19.30;99.90;;;;;;5072248;28;20382;-46
2023/08/10 08:02:13;;;;;;;0.93;0.82;;;19.30;99.90;;;;;;5072450;28;20025;-42
2023/08/10 08:04:39;;;;;;;0.63;0.60;;;19.30;99.90;;;;;;5072302;28;20044;-44
2023/08/10 08:07:04;;;;;;;1.27;0.80;;;19.30;99.90;;;;;;5071020;28;20021;-43
2023/08/10 08:09:30;;;;;;;0.90;0.73;;;19.30;99.90;;;;;;5071956;28;20556;-44
2023/08/10 08:11:55;;;;;;;1.60;0.80;;;19.30;99.90;;;;;;5072174;28;20028;-43
2023/08/10 08:14:21;;;;;;;0.90;0.70;;;19.30;99.90;;;;;;5072103;28;20055;-44
2023/08/10 08:16:52;;;;;;;1.23;0.90;;;19.30;99.90;;;;;;5072657;28;20071;-40
2023/08/10 08:19:19;;;;;;;0.90;0.70;;;19.30;99.90;;;;;;5073188;28;20429;-40
2023/08/10 08:21:48;;;;;;;0.88;0.70;;;19.30;99.90;;;;;;5072683;28;20074;-40
2023/08/10 08:24:15;;;;;;;1.30;0.70;;;19.30;99.90;;;;;;5071875;28;20027;-42
2023/08/10 08:26:41;;;;;;;1.10;0.90;;;19.30;99.90;;;;;;5071869;28;20032;-40
2023/08/10 08:29:06;;;;;;;0.77;0.70;;;19.40;99.90;;;;;;5071662;28;20107;-40
2023/08/10 08:31:33;;;;;;;1.30;0.93;;;19.30;99.90;;;;;;5071925;28;20029;-40
2023/08/10 08:33:59;;;;;;;1.23;0.73;;;19.40;99.90;;;;;;5071784;28;20473;-42
2023/08/10 08:36:24;;;;;;;1.05;0.75;;;19.30;99.90;;;;;;5071656;28;20029;-41
2023/08/10 08:38:50;;;;;;;1.05;0.70;;;19.40;99.90;;;;;;5071642;28;20024;-41
2023/08/10 08:41:18;;;;;;;2.50;0.90;;;19.30;99.90;;;;;;5071674;28;20024;-42
2023/08/10 08:43:47;;;;;;;1.02;0.70;;;19.40;99.90;;;;;;5071611;28;20096;-42
2023/08/10 08:46:13;;;;;;;1.00;0.63;;;19.40;99.90;;;;;;5071640;28;20025;-44
2023/08/10 08:48:39;;;;;;;1.00;0.70;;;19.40;99.90;;;;;;5070265;28;20041;-42
2023/08/10 08:51:08;;;;;;;1.20;1.00;;;19.40;99.90;;;;;;5069980;28;20020;-44
2023/08/10 08:53:34;;;;;;;0.90;0.70;;;19.40;99.90;;;;;;5071464;28;20040;-42
2023/08/10 08:56:00;;;;;;;1.40;0.80;;;19.40;99.90;;;;;;5071545;28;20032;-42
2023/08/10 08:58:27;;;;;;;0.88;0.60;;;19.40;99.90;;;;;;5071583;28;20056;-45
2023/08/10 09:00:54;;;;;;;0.93;0.70;;;19.40;99.90;;;;;;5071276;28;20021;-44
2023/08/10 09:03:24;;;;;;;1.42;0.93;;;19.40;99.90;;;;;;5071296;28;20025;-43
2023/08/10 09:05:50;;;;;;;1.13;0.80;;;19.40;99.90;;;;;;5071432;28;20532;-42
2023/08/10 09:08:18;;;;;;;0.80;0.77;;;19.40;99.90;;;;;;5071351;28;20409;-45
2023/08/10 09:10:46;;;;;;;1.52;1.00;;;19.40;99.90;;;;;;5071121;28;20075;-40
2023/08/10 09:13:23;;;;;;;1.00;0.80;;;19.40;99.90;;;;;;5071203;28;20450;-43
2023/08/10 09:16:08;;;;;;;1.00;0.63;;;19.40;99.90;;;;;;5071351;28;20040;-41
2023/08/10 09:18:35;;;;;;;1.13;0.70;;;19.40;99.90;;;;;;5071259;28;20031;-40
2023/08/10 09:21:11;;;;;;;0.80;0.70;;;19.40;99.90;;;;;;5071061;28;20016;-40
2023/08/10 09:23:36;;;;;;;1.42;1.00;;;19.40;99.90;;;;;;5071099;28;20478;-41
2023/08/10 09:26:10;;;;;;;1.17;0.80;;;19.40;99.90;;;;;;5071200;28;20032;-45
2023/08/10 09:28:37;;;;;;;1.35;0.88;;;19.40;99.90;;;;;;5071190;28;20078;-46
2023/08/10 09:31:03;;;;;;;1.15;0.85;;;19.40;99.90;;;;;;5070970;28;20025;-43
2023/08/10 09:33:32;;;;;;;1.75;1.20;;;19.50;99.90;;;;;;5073728;28;20081;-42
2023/08/10 09:36:04;;;;;;;2.70;1.30;;;19.50;99.90;;;;;;5075138;28;20025;-46
2023/08/10 09:38:30;;;;;;;2.03;1.55;;;19.50;99.90;;;;;;5075065;28;20021;-43
2023/08/10 09:41:14;;;;;;;2.72;1.48;;;19.50;99.90;;;;;;5075378;28;20024;-43
2023/08/10 09:43:41;;;;;;;2.28;1.50;;;19.60;99.90;;;;;;5075064;28;20020;-41
2023/08/10 09:46:09;;;;;;;2.17;1.60;;;19.60;99.90;;;;;;5075091;28;20060;-42
2023/08/10 09:48:40;;;;;;;2.10;1.45;;;19.60;99.90;;;;;;5075009;28;20107;-40
2023/08/10 09:51:07;;;;;;;1.92;1.50;;;19.60;99.90;;;;;;5074803;28;20283;-41
2023/08/10 09:53:33;;;;;;;3.97;1.58;;;19.60;99.90;;;;;;5074699;28;20025;-41
2023/08/10 09:55:59;;;;;;;2.15;1.58;;;19.70;99.90;;;;;;5074880;28;20025;-41
2023/08/10 09:58:25;;;;;;;2.03;1.50;;;19.70;99.90;;;;;;5074902;28;20103;-41
2023/08/10 10:00:52;;;;;;;2.33;1.48;;;19.70;99.90;;;;;;5074706;28;20020;-40
2023/08/10 10:03:19;;;;;;;2.60;1.70;;;19.70;99.90;;;;;;5074631;28;20125;-41
2023/08/10 10:05:45;;;;;;;2.85;1.50;;;19.70;99.90;;;;;;5074649;28;20031;-42
2023/08/10 10:08:14;;;;;;;3.03;1.55;;;19.70;99.90;;;;;;5074444;28;20017;-42
2023/08/10 10:10:42;;;;;;;2.08;1.30;;;19.80;99.90;;;;;;5074361;28;20432;-41
2023/08/10 10:13:14;;;;;;;2.05;1.50;;;19.80;99.90;;;;;;5074531;28;20029;-41
2023/08/10 10:15:41;;;;;;;1.52;1.42;;;19.80;99.90;;;;;;5074427;28;20115;-39
2023/08/10 10:18:09;;;;;;;3.08;1.52;;;19.80;99.90;;;;;;5074368;28;20090;-39
2023/08/10 10:20:41;;;;;;;2.38;1.40;;;19.80;99.90;;;;;;5074051;28;20048;-40
2023/08/10 10:23:18;;;;;;;2.65;1.30;;;19.80;99.90;;;;;;5074228;28;20016;-40
2023/08/10 10:26:06;;;;;;;2.15;1.40;;;19.80;99.90;;;;;;5074313;28;20021;-40
2023/08/10 10:28:33;;;;;;;2.00;1.30;;;19.90;99.90;;;;;;5074221;28;20096;-40
2023/08/10 10:31:04;;;;;;;2.10;1.60;;;19.80;99.90;;;;;;5073902;28;20033;-41
2023/08/10 10:33:31;;;;;;;3.10;1.60;;;19.90;99.90;;;;;;5074288;28;20024;-40
2023/08/10 10:36:14;;;;;;;2.00;1.23;;;19.90;99.90;;;;;;5074044;28;20095;-39
2023/08/10 10:38:47;;;;;;;2.70;1.50;;;19.90;99.90;;;;;;5073990;28;20028;-43
2023/08/10 10:41:28;;;;;;;2.10;1.40;;;19.90;99.90;;;;;;5073995;28;20020;-39
2023/08/10 10:43:53;;;;;;;1.65;1.20;;;19.90;99.90;;;;;;5073184;28;20060;-40
2023/08/10 10:46:31;;;;;;;1.70;1.13;;;19.90;99.90;;;;;;5073890;28;20205;-39
2023/08/10 10:48:57;;;;;;;1.90;1.25;;;19.90;99.90;;;;;;5073745;28;20025;-42
2023/08/10 10:51:24;;;;;;;1.63;1.27;;;20.00;99.90;;;;;;5073799;28;20027;-41
2023/08/10 10:53:53;;;;;;;2.33;1.38;;;20.00;99.90;;;;;;5073569;28;20035;-42
2023/08/10 10:56:20;;;;;;;1.58;1.30;;;19.90;99.90;;;;;;5073691;28;20053;-41
2023/08/10 10:58:47;;;;;;;1.88;1.35;;;20.00;99.90;;;;;;5073817;28;20485;-41
2023/08/10 11:01:19;;;;;;;1.52;1.15;;;20.00;99.90;;;;;;5073599;28;20028;-43
2023/08/10 11:03:51;;;;;;;1.80;1.25;;;20.00;99.90;;;;;;5073555;28;20078;-42
2023/08/10 11:06:20;;;;;;;2.28;1.23;;;20.00;99.90;;;;;;5073475;28;20024;-42
2023/08/10 11:08:48;;;;;;;1.98;1.30;;;20.00;99.90;;;;;;5073408;28;20028;-41
2023/08/10 11:11:14;;;;;;;1.17;1.00;;;20.00;99.90;;;;;;5073486;28;20111;-43
2023/08/10 11:13:40;;;;;;;2.90;1.42;;;20.00;99.90;;;;;;5073519;28;20109;-41
2023/08/10 11:16:05;;;;;;;1.35;1.13;;;20.00;99.90;;;;;;5073214;28;20557;-43
2023/08/10 11:18:31;;;;;;;1.95;1.20;;;20.00;99.90;;;;;;5072066;28;20177;-41
2023/08/10 11:20:57;;;;;;;1.98;1.38;;;20.10;99.90;;;;;;5072952;28;20031;-41
2023/08/10 11:23:25;;;;;;;1.55;1.30;;;20.10;99.90;;;;;;5073256;28;20024;-43
2023/08/10 11:25:51;;;;;;;1.30;1.13;;;20.10;99.90;;;;;;5073225;28;20021;-42
2023/08/10 11:28:20;;;;;;;1.85;1.27;;;20.00;99.90;;;;;;5073165;28;20036;-41
2023/08/10 11:30:47;;;;;;;2.08;1.20;;;20.00;99.90;;;;;;5072905;28;20027;-41
2023/08/10 11:33:14;;;;;;;1.77;1.00;;;20.10;99.90;;;;;;5073126;28;20021;-41
2023/08/10 11:35:43;;;;;;;1.52;1.38;;;20.10;99.90;;;;;;5072814;28;20024;-42
2023/08/10 11:38:09;;;;;;;1.85;1.15;;;20.10;99.90;;;;;;5072988;28;20029;-41
2023/08/10 11:40:35;;;;;;;1.63;1.30;;;20.10;99.90;;;;;;5072829;28;20436;-41
2023/08/10 11:43:11;;;;;;;1.73;1.10;;;20.10;99.90;;;;;;5072732;28;20095;-40
2023/08/10 11:45:37;;;;;;;1.77;1.10;;;20.10;99.90;;;;;;5072841;28;20013;-42
2023/08/10 11:48:07;;;;;;;1.90;1.33;;;20.10;99.90;;;;;;5072618;28;20079;-42
2023/08/10 11:50:33;;;;;;;1.77;1.40;;;20.10;99.90;;;;;;5072470;28;20746;-43
2023/08/10 11:53:22;;;;;;;2.22;1.35;;;20.10;99.90;;;;;;5072525;28;20107;-42
2023/08/10 11:55:50;;;;;;;4.03;1.38;;;20.20;99.90;;;;;;5071660;28;20033;-42
2023/08/10 11:58:17;;;;;;;1.48;1.05;;;20.10;99.90;;;;;;5072481;28;20032;-41
2023/08/10 12:00:47;;;;;;;1.30;1.10;;;20.10;99.90;;;;;;5072135;28;20021;-42
2023/08/10 12:03:16;;;;;;;1.73;1.30;;;20.10;99.90;;;;;;5072415;28;20494;-41
2023/08/10 12:05:50;;;;;;;1.50;1.25;;;20.20;99.90;;;;;;5072328;28;20021;-44
2023/08/10 12:08:24;;;;;;;1.92;1.27;;;20.20;99.90;;;;;;5072549;28;20042;-43
2023/08/10 12:11:03;;;;;;;1.52;1.17;;;20.20;99.90;;;;;;5072058;28;20051;-42
2023/08/10 12:13:30;;;;;;;1.48;1.23;;;20.20;99.90;;;;;;5072432;28;20096;-41
2023/08/10 12:15:57;;;;;;;1.50;1.20;;;20.20;99.90;;;;;;5071988;28;20028;-42
2023/08/10 12:18:24;;;;;;;1.27;1.17;;;20.20;99.90;;;;;;5072135;28;20020;-40
2023/08/10 12:20:52;;;;;;;1.60;1.30;;;20.20;99.90;;;;;;5071890;28;20031;-43
2023/08/10 12:23:18;;;;;;;2.25;1.40;;;20.20;99.90;;;;;;5072039;28;20100;-40
2023/08/10 12:25:45;;;;;;;1.30;1.10;;;20.20;99.90;;;;;;5072018;28;20107;-42
2023/08/10 12:28:12;;;;;;;1.85;1.42;;;20.20;99.90;;;;;;5072011;28;20031;-41
2023/08/10 12:30:39;;;;;;;3.17;1.38;;;20.20;99.90;;;;;;5071654;28;20517;-41
2023/08/10 12:33:06;;;;;;;1.58;1.20;;;20.20;99.90;;;;;;5071752;28;20040;-42
2023/08/10 12:35:33;;;;;;;1.65;1.27;;;20.20;99.90;;;;;;5071816;28;20024;-42
2023/08/10 12:37:59;;;;;;;1.83;1.38;;;20.20;99.90;;;;;;5071609;28;20397;-41
2023/08/10 12:40:25;;;;;;;1.98;1.40;;;20.20;99.90;;;;;;5071510;28;20016;-43
2023/08/10 12:42:51;;;;;;;1.20;1.02;;;20.20;99.90;;;;;;5071787;28;20095;-41
2023/08/10 12:45:17;;;;;;;2.25;1.30;;;20.20;99.90;;;;;;5071712;28;20103;-41
2023/08/10 12:47:44;;;;;;;1.48;1.17;;;20.20;99.90;;;;;;5071641;28;20020;-41